createdAt,value
2019-02-24T00:03:04.955Z,4.60
2019-02-24T00:13:09.349Z,2.63
2019-02-24T00:23:13.391Z,3.70
2019-02-24T00:33:18.096Z,3.10
2019-02-24T00:43:22.699Z,3.73
2019-02-24T00:53:26.481Z,2.60
2019-02-24T01:03:30.313Z,2.70
2019-02-24T01:13:34.491Z,2.57
2019-02-24T01:23:38.815Z,2.60
2019-02-24T01:33:42.641Z,2.97
2019-02-24T01:43:46.699Z,3.00
2019-02-24T01:53:50.795Z,2.70
2019-02-24T02:03:54.606Z,2.57
2019-02-24T02:13:58.944Z,2.27
2019-02-24T02:24:03.238Z,2.23
2019-02-24T02:34:07.138Z,2.80
2019-02-24T02:44:13.418Z,2.40
2019-02-24T02:54:17.718Z,2.30
2019-02-24T03:04:22.153Z,2.80
2019-02-24T03:14:26.345Z,2.70
2019-02-24T03:24:30.434Z,2.37
2019-02-24T03:34:34.219Z,2.70
2019-02-24T03:44:38.009Z,2.87
2019-02-24T03:54:42.673Z,2.90
2019-02-24T04:04:46.507Z,3.10
2019-02-24T04:14:50.578Z,3.47
2019-02-24T04:24:54.733Z,3.00
2019-02-24T04:34:58.812Z,3.10
2019-02-24T04:45:02.877Z,3.10
2019-02-24T04:55:07.271Z,3.50
2019-02-24T05:05:11.838Z,3.27
2019-02-24T05:15:16.376Z,4.03
2019-02-24T05:25:20.750Z,3.97
2019-02-24T05:35:24.588Z,3.60
2019-02-24T05:45:28.415Z,4.40
2019-02-24T05:55:32.784Z,4.07
2019-02-24T06:05:37.087Z,4.43
2019-02-24T06:15:41.200Z,5.17
2019-02-24T06:25:45.007Z,6.40
2019-02-24T06:35:48.816Z,5.63
2019-02-24T06:45:52.625Z,4.90
2019-02-24T06:55:59.002Z,5.20
2019-02-24T07:06:02.807Z,6.03
2019-02-24T07:16:07.229Z,5.20
2019-02-24T07:26:11.348Z,5.20
2019-02-24T07:36:15.434Z,4.43
2019-02-24T07:46:19.537Z,3.33
2019-02-24T07:56:23.854Z,4.43
2019-02-24T08:06:27.626Z,3.90
2019-02-24T08:16:31.390Z,5.17
2019-02-24T08:26:35.172Z,4.90
2019-02-24T08:36:39.200Z,5.80
2019-02-24T08:46:42.967Z,7.13
2019-02-24T08:56:47.518Z,6.80
2019-02-24T09:06:51.346Z,7.80
2019-02-24T09:16:55.414Z,7.17
2019-02-24T09:27:00.174Z,6.87
2019-02-24T09:37:04.581Z,5.90
2019-02-24T09:47:08.628Z,7.00
2019-02-24T09:57:12.898Z,4.70
2019-02-24T10:07:17.515Z,4.43
2019-02-24T10:17:26.154Z,6.30
2019-02-24T10:27:30.405Z,4.77
2019-02-24T10:37:34.540Z,4.90
2019-02-24T10:47:38.613Z,5.90
2019-02-24T10:57:51.706Z,4.70
2019-02-24T11:07:55.775Z,3.63
2019-02-24T11:18:01.501Z,4.03
2019-02-24T11:28:05.832Z,5.37
2019-02-24T11:38:09.606Z,4.60
2019-02-24T11:48:13.882Z,4.03
2019-02-24T11:58:18.013Z,4.27
2019-02-24T12:08:24.192Z,3.70
2019-02-24T12:18:28.564Z,4.17
2019-02-24T12:28:32.962Z,3.73
2019-02-24T12:38:36.822Z,4.30
2019-02-24T12:48:41.123Z,4.70
2019-02-24T12:58:54.708Z,4.90
2019-02-24T13:08:58.854Z,4.30
2019-02-24T13:19:03.309Z,4.30
2019-02-24T13:29:08.038Z,3.60
2019-02-24T13:39:12.457Z,3.23
2019-02-24T13:49:16.531Z,2.70
2019-02-24T13:59:20.348Z,2.80
2019-02-24T14:09:24.734Z,3.53
2019-02-24T14:19:28.527Z,2.63
2019-02-24T14:29:38.172Z,3.57
2019-02-24T14:39:44.514Z,2.70
2019-02-24T14:49:48.550Z,2.50
2019-02-24T14:59:52.410Z,2.73
2019-02-24T15:09:56.175Z,2.87
2019-02-24T15:20:00.470Z,3.73
2019-02-24T15:30:06.994Z,1.80
2019-02-24T15:40:30.537Z,1.73
2019-02-24T15:50:34.322Z,2.30
2019-02-24T16:00:38.383Z,1.77
2019-02-24T16:10:42.721Z,1.70
2019-02-24T16:20:47.590Z,1.43
2019-02-24T16:30:51.446Z,1.30
2019-02-24T16:40:55.301Z,1.20
2019-02-24T16:50:59.363Z,1.40
2019-02-24T17:01:03.131Z,2.57
2019-02-24T17:11:07.830Z,3.40
2019-02-24T17:21:12.060Z,1.87
2019-02-24T17:31:16.693Z,2.23
2019-02-24T17:41:20.498Z,2.07
2019-02-24T17:51:26.514Z,3.10
2019-02-24T18:01:30.643Z,2.33
2019-02-24T18:11:34.746Z,4.07
2019-02-24T18:21:39.066Z,2.77
2019-02-24T18:31:44.573Z,2.73
2019-02-24T18:41:48.711Z,3.03
2019-02-24T18:51:53.100Z,2.53
2019-02-24T19:01:57.139Z,2.83
2019-02-24T19:12:02.703Z,2.90
2019-02-24T19:22:07.289Z,2.90
2019-02-24T19:32:11.698Z,2.73
2019-02-24T19:42:16.170Z,3.60
2019-02-24T19:52:20.833Z,3.03
2019-02-24T20:02:24.996Z,3.20
2019-02-24T20:12:29.434Z,3.87
2019-02-24T20:22:33.402Z,3.47
2019-02-24T20:32:37.781Z,4.70
2019-02-24T20:42:41.660Z,4.20
2019-02-24T20:52:45.702Z,3.83
2019-02-24T21:02:49.830Z,4.30
2019-02-24T21:12:54.130Z,4.23
2019-02-24T21:34:01.777Z,4.50
2019-02-24T21:44:06.182Z,5.57
2019-02-24T21:54:10.610Z,5.43
2019-02-24T22:04:16.671Z,4.77
2019-02-24T22:14:21.201Z,4.50
2019-02-24T22:24:25.632Z,5.30
2019-02-24T22:34:30.072Z,5.23
2019-02-24T22:44:34.455Z,3.93
2019-02-24T22:54:38.670Z,4.67
2019-02-24T23:04:43.042Z,4.17
2019-02-24T23:14:47.195Z,4.70
2019-02-24T23:24:51.235Z,4.70
2019-02-24T23:34:55.031Z,5.00
2019-02-24T23:44:58.830Z,5.20
2019-02-24T23:55:02.857Z,4.13
